createdAt,value
2023-05-14T00:00:58.354Z,117.60
2023-05-14T00:03:24.777Z,140.05
2023-05-14T00:05:51.185Z,114.45
2023-05-14T00:08:17.540Z,128.85
2023-05-14T00:10:43.978Z,113.40
2023-05-14T00:13:10.583Z,104.28
2023-05-14T00:15:37.035Z,130.35
2023-05-14T00:18:03.540Z,105.30
2023-05-14T00:20:30.452Z,118.22
2023-05-14T00:22:56.804Z,119.38
2023-05-14T00:25:23.248Z,130.82
2023-05-14T00:27:49.547Z,123.40
2023-05-14T00:30:15.877Z,109.43
2023-05-14T00:32:42.210Z,113.90
2023-05-14T00:35:09.051Z,111.78
2023-05-14T00:37:36.294Z,96.35
2023-05-14T00:40:03.600Z,76.03
2023-05-14T00:42:29.912Z,69.80
2023-05-14T00:44:56.233Z,67.00
2023-05-14T00:47:22.743Z,65.00
2023-05-14T00:49:49.171Z,93.10
2023-05-14T00:52:16.548Z,119.95
2023-05-14T00:54:43.087Z,120.68
2023-05-14T00:57:09.471Z,96.47
2023-05-14T00:59:35.947Z,125.13
2023-05-14T01:02:02.418Z,100.30
2023-05-14T01:04:29.350Z,87.55
2023-05-14T01:07:22.232Z,88.15
2023-05-14T01:09:54.994Z,93.30
2023-05-14T01:12:29.970Z,89.15
2023-05-14T01:15:12.558Z,89.30
2023-05-14T01:17:46.810Z,81.10
2023-05-14T01:20:13.502Z,75.90
2023-05-14T01:22:39.896Z,116.50
2023-05-14T01:25:06.937Z,86.13
2023-05-14T01:27:46.240Z,75.18
2023-05-14T01:30:27.384Z,65.18
2023-05-14T01:32:57.874Z,85.25
2023-05-14T01:35:28.506Z,79.07
2023-05-14T01:37:57.393Z,68.70
2023-05-14T01:40:25.357Z,59.50
2023-05-14T01:42:53.511Z,73.22
2023-05-14T01:45:21.367Z,89.53
2023-05-14T01:47:47.988Z,119.80
2023-05-14T01:50:14.473Z,82.07
2023-05-14T01:52:40.840Z,73.70
2023-05-14T01:55:07.790Z,88.93
2023-05-14T01:57:34.130Z,86.53
2023-05-14T02:00:00.669Z,91.00
2023-05-14T02:02:27.061Z,88.05
2023-05-14T02:04:53.417Z,74.65
2023-05-14T02:07:19.725Z,76.30
2023-05-14T02:09:46.057Z,76.35
2023-05-14T02:12:12.385Z,65.05
2023-05-14T02:14:38.795Z,63.10
2023-05-14T02:17:05.439Z,66.70
2023-05-14T02:19:31.855Z,75.40
2023-05-14T02:22:00.960Z,66.15
2023-05-14T02:24:27.454Z,68.28
2023-05-14T02:26:53.900Z,59.20
2023-05-14T02:29:20.392Z,54.35
2023-05-14T02:31:46.785Z,60.88
2023-05-14T02:34:13.176Z,59.55
2023-05-14T02:36:39.947Z,56.17
2023-05-14T02:39:06.567Z,56.97
2023-05-14T02:41:32.987Z,59.58
2023-05-14T02:43:59.334Z,57.85
2023-05-14T02:46:25.831Z,55.53
2023-05-14T02:48:52.240Z,56.03
2023-05-14T02:51:20.893Z,67.07
2023-05-14T02:53:47.228Z,70.72
2023-05-14T02:56:13.554Z,79.90
2023-05-14T02:58:39.912Z,83.72
2023-05-14T03:01:06.314Z,70.43
2023-05-14T03:03:33.778Z,75.28
2023-05-14T03:06:00.706Z,81.55
2023-05-14T03:08:27.034Z,76.90
2023-05-14T03:10:53.368Z,79.00
2023-05-14T03:13:20.503Z,76.72
2023-05-14T03:15:47.352Z,74.25
2023-05-14T03:18:14.968Z,78.18
2023-05-14T03:20:41.845Z,77.57
2023-05-14T03:23:08.234Z,77.28
2023-05-14T03:25:34.586Z,72.45
2023-05-14T03:28:00.926Z,73.60
2023-05-14T03:30:27.441Z,70.00
2023-05-14T03:32:53.966Z,77.60
2023-05-14T03:35:21.366Z,91.72
2023-05-14T03:37:47.744Z,94.60
2023-05-14T03:40:14.107Z,94.72
2023-05-14T03:42:40.477Z,93.10
2023-05-14T03:45:07.664Z,87.45
2023-05-14T03:47:34.008Z,73.55
2023-05-14T03:50:00.386Z,80.80
2023-05-14T03:52:27.091Z,76.43
2023-05-14T03:54:53.474Z,74.35
2023-05-14T03:57:19.779Z,75.18
2023-05-14T03:59:46.087Z,72.75
2023-05-14T04:02:12.465Z,72.38
2023-05-14T04:04:38.903Z,67.65
2023-05-14T04:07:05.389Z,71.18
2023-05-14T04:09:31.738Z,71.57
2023-05-14T04:11:58.112Z,70.03
2023-05-14T04:14:24.747Z,66.55
2023-05-14T04:16:51.079Z,63.38
2023-05-14T04:19:17.671Z,67.97
2023-05-14T04:21:44.283Z,67.60
2023-05-14T04:24:10.613Z,67.97
2023-05-14T04:26:36.950Z,66.60
2023-05-14T04:29:03.432Z,64.70
2023-05-14T04:31:30.316Z,66.18
2023-05-14T04:33:56.665Z,67.63
2023-05-14T04:36:23.003Z,71.75
2023-05-14T04:38:49.342Z,72.65
2023-05-14T04:41:15.694Z,68.88
2023-05-14T04:43:42.020Z,73.90
2023-05-14T04:46:09.307Z,73.68
2023-05-14T04:48:35.698Z,75.25
2023-05-14T04:51:02.040Z,77.72
2023-05-14T04:53:28.408Z,79.32
2023-05-14T04:55:55.068Z,76.82
2023-05-14T04:58:23.115Z,74.40
2023-05-14T05:00:50.068Z,79.18
2023-05-14T05:03:16.573Z,91.50
2023-05-14T05:05:43.040Z,89.35
2023-05-14T05:08:11.249Z,91.45
2023-05-14T05:10:37.591Z,100.78
2023-05-14T05:13:03.905Z,101.93
2023-05-14T05:15:30.324Z,113.55
2023-05-14T05:17:56.713Z,124.28
2023-05-14T05:20:23.420Z,117.10
2023-05-14T05:22:49.865Z,128.63
2023-05-14T05:25:16.281Z,131.70
2023-05-14T05:27:42.584Z,153.45
2023-05-14T05:30:09.322Z,151.38
2023-05-14T05:32:36.064Z,177.52
2023-05-14T05:35:03.225Z,180.60
2023-05-14T05:37:30.674Z,165.85
2023-05-14T05:39:57.027Z,190.25
2023-05-14T05:42:24.213Z,215.13
2023-05-14T05:44:50.534Z,211.07
2023-05-14T05:47:17.104Z,215.35
2023-05-14T05:49:43.490Z,234.63
2023-05-14T05:52:10.287Z,240.55
2023-05-14T05:54:36.662Z,268.88
2023-05-14T05:57:03.048Z,293.25
2023-05-14T05:59:29.383Z,315.35
2023-05-14T06:01:55.764Z,307.75
2023-05-14T06:04:22.182Z,301.35
2023-05-14T06:06:48.507Z,308.85
2023-05-14T06:09:14.885Z,297.15
2023-05-14T06:11:41.257Z,275.02
2023-05-14T06:14:07.562Z,275.77
2023-05-14T06:16:33.936Z,272.98
2023-05-14T06:19:00.380Z,275.90
2023-05-14T06:21:26.744Z,259.17
2023-05-14T06:23:53.167Z,251.52
2023-05-14T06:26:19.514Z,241.05
2023-05-14T06:28:45.817Z,225.55
2023-05-14T06:31:12.168Z,221.23
2023-05-14T06:33:39.078Z,219.88
2023-05-14T06:36:06.733Z,215.55
2023-05-14T06:38:33.174Z,196.90
2023-05-14T06:40:59.543Z,171.30
2023-05-14T06:43:25.914Z,153.05
2023-05-14T06:45:52.330Z,152.18
2023-05-14T06:48:19.397Z,147.02
2023-05-14T06:50:47.478Z,144.73
2023-05-14T06:53:14.479Z,133.05
2023-05-14T06:55:41.053Z,119.20
2023-05-14T06:58:07.987Z,128.23
2023-05-14T07:00:34.601Z,125.90
2023-05-14T07:03:00.989Z,128.27
2023-05-14T07:05:27.439Z,136.32
2023-05-14T07:07:53.762Z,135.88
2023-05-14T07:10:20.645Z,124.03
2023-05-14T07:12:47.062Z,120.43
2023-05-14T07:15:13.372Z,139.68
2023-05-14T07:17:39.794Z,144.25
2023-05-14T07:20:06.964Z,115.30
2023-05-14T07:22:33.294Z,110.00
2023-05-14T07:24:59.855Z,74.57
2023-05-14T07:27:26.239Z,82.55
2023-05-14T07:29:52.591Z,63.35
2023-05-14T07:32:18.926Z,82.82
2023-05-14T07:34:45.274Z,56.40
2023-05-14T07:37:11.785Z,51.72
2023-05-14T07:39:38.433Z,73.57
2023-05-14T07:42:05.136Z,47.05
2023-05-14T07:44:31.472Z,50.80
2023-05-14T07:46:57.951Z,59.70
2023-05-14T07:49:24.280Z,49.95
2023-05-14T07:51:50.714Z,51.83
2023-05-14T07:54:17.124Z,63.08
2023-05-14T07:56:43.456Z,60.08
2023-05-14T07:59:09.791Z,91.90
2023-05-14T08:01:38.588Z,49.75
2023-05-14T08:04:06.077Z,46.20
2023-05-14T08:06:32.482Z,56.95
2023-05-14T08:08:58.860Z,102.13
2023-05-14T08:11:25.980Z,96.47
2023-05-14T08:13:52.372Z,56.70
2023-05-14T08:16:18.792Z,65.10
2023-05-14T08:18:45.470Z,76.03
2023-05-14T08:21:11.872Z,42.70
2023-05-14T08:23:38.228Z,49.55
2023-05-14T08:26:04.710Z,80.40
2023-05-14T08:28:31.074Z,54.10
2023-05-14T08:30:57.494Z,111.95
2023-05-14T08:33:23.864Z,42.22
2023-05-14T08:35:52.768Z,42.70
2023-05-14T08:38:19.080Z,54.17
2023-05-14T08:40:55.068Z,50.00
2023-05-14T08:43:30.710Z,45.22
2023-05-14T08:46:01.917Z,61.50
2023-05-14T08:48:33.060Z,62.17
2023-05-14T08:51:00.519Z,41.50
2023-05-14T08:53:27.158Z,185.93
2023-05-14T08:55:53.936Z,135.18
2023-05-14T08:58:20.680Z,170.60
2023-05-14T09:00:47.599Z,64.50
2023-05-14T09:03:14.983Z,161.35
2023-05-14T09:05:41.926Z,50.75
2023-05-14T09:08:08.457Z,50.10
2023-05-14T09:10:35.825Z,130.40
2023-05-14T09:13:02.242Z,39.92
2023-05-14T09:15:29.559Z,36.20
2023-05-14T09:17:56.719Z,31.02
2023-05-14T09:20:24.814Z,26.25
2023-05-14T09:22:54.798Z,22.95
2023-05-14T09:25:27.419Z,23.48
2023-05-14T09:27:56.733Z,22.25
2023-05-14T09:30:26.425Z,25.10
2023-05-14T09:32:54.138Z,27.80
2023-05-14T09:35:22.513Z,23.00
2023-05-14T09:37:54.025Z,18.70
2023-05-14T09:40:22.376Z,27.65
2023-05-14T09:42:49.490Z,23.58
2023-05-14T09:45:16.637Z,27.60
2023-05-14T09:47:43.239Z,32.95
2023-05-14T09:50:09.966Z,38.45
2023-05-14T09:52:39.090Z,28.58
2023-05-14T09:55:06.339Z,34.40
2023-05-14T09:57:33.464Z,34.13
2023-05-14T09:59:59.853Z,36.45
2023-05-14T10:02:30.102Z,17.05
2023-05-14T10:05:02.373Z,12.02
2023-05-14T10:07:35.477Z,12.30
2023-05-14T10:10:03.142Z,12.88
2023-05-14T10:12:34.475Z,12.60
2023-05-14T10:15:04.701Z,18.63
2023-05-14T10:17:32.434Z,12.82
2023-05-14T10:20:00.601Z,12.60
2023-05-14T10:22:34.020Z,21.08
2023-05-14T10:25:01.909Z,19.67
2023-05-14T10:27:28.486Z,16.05
2023-05-14T10:29:55.818Z,16.55
2023-05-14T10:32:25.063Z,13.68
2023-05-14T10:34:52.582Z,13.15
2023-05-14T10:37:21.889Z,13.15
2023-05-14T10:39:51.237Z,12.93
2023-05-14T10:42:20.535Z,12.63
2023-05-14T10:45:07.252Z,13.88
2023-05-14T10:47:36.009Z,15.65
2023-05-14T10:50:04.985Z,10.90
2023-05-14T10:52:32.085Z,9.25
2023-05-14T10:55:03.210Z,8.88
2023-05-14T10:57:32.682Z,8.70
2023-05-14T11:00:02.648Z,9.00
2023-05-14T11:02:34.289Z,8.80
2023-05-14T11:05:05.835Z,8.80
2023-05-14T11:07:36.230Z,8.30
2023-05-14T11:10:05.829Z,7.03
2023-05-14T11:12:37.967Z,6.78
2023-05-14T11:15:09.250Z,6.57
2023-05-14T11:17:37.189Z,6.63
2023-05-14T11:20:05.931Z,6.05
2023-05-14T11:22:32.624Z,6.43
2023-05-14T11:24:59.061Z,6.60
2023-05-14T11:27:26.261Z,6.35
2023-05-14T11:29:52.821Z,6.47
2023-05-14T11:32:20.006Z,7.25
2023-05-14T11:34:46.933Z,5.75
2023-05-14T11:37:15.689Z,5.97
2023-05-14T11:39:55.700Z,6.47
2023-05-14T11:42:22.434Z,6.97
2023-05-14T11:44:54.270Z,7.50
2023-05-14T11:47:21.938Z,6.95
2023-05-14T11:49:49.065Z,6.82
2023-05-14T11:52:19.071Z,6.03
2023-05-14T11:54:45.897Z,6.05
2023-05-14T11:57:20.052Z,6.45
2023-05-14T12:02:18.111Z,6.80
2023-05-14T12:04:49.263Z,7.25
2023-05-14T12:07:16.411Z,6.47
2023-05-14T12:09:50.814Z,7.22
2023-05-14T12:12:22.001Z,6.78
2023-05-14T12:14:49.753Z,6.40
2023-05-14T12:17:23.127Z,5.80
2023-05-14T12:19:51.455Z,5.90
2023-05-14T12:22:20.533Z,5.22
2023-05-14T12:24:57.987Z,4.90
2023-05-14T12:27:29.618Z,5.13
2023-05-14T12:30:20.643Z,5.70
2023-05-14T12:32:51.472Z,5.30
2023-05-14T12:35:18.478Z,5.78
2023-05-14T12:37:44.827Z,5.38
2023-05-14T12:40:11.525Z,6.25
2023-05-14T12:42:37.922Z,6.85
2023-05-14T12:45:07.696Z,7.88
2023-05-14T12:47:34.473Z,5.82
2023-05-14T12:50:01.150Z,6.00
2023-05-14T12:52:37.954Z,5.90
2023-05-14T12:55:09.356Z,5.35
2023-05-14T12:57:37.026Z,4.70
2023-05-14T13:00:07.726Z,4.85
2023-05-14T13:02:42.064Z,4.72
2023-05-14T13:05:10.221Z,4.65
2023-05-14T13:07:36.644Z,4.70
2023-05-14T13:10:05.670Z,5.07
2023-05-14T13:12:36.491Z,4.55
2023-05-14T13:15:06.220Z,5.60
2023-05-14T13:17:34.859Z,5.15
2023-05-14T13:20:03.054Z,4.63
2023-05-14T13:22:29.486Z,4.60
2023-05-14T13:24:55.869Z,4.93
2023-05-14T13:27:22.265Z,4.60
2023-05-14T13:29:48.592Z,5.40
2023-05-14T13:32:14.921Z,4.53
2023-05-14T13:34:41.354Z,5.15
2023-05-14T13:37:07.724Z,5.45
2023-05-14T13:39:34.050Z,4.82
2023-05-14T13:42:01.008Z,5.35
2023-05-14T13:44:27.642Z,4.72
2023-05-14T13:46:54.125Z,5.70
2023-05-14T13:49:21.080Z,5.60
2023-05-14T13:51:47.394Z,5.20
2023-05-14T13:54:13.792Z,5.40
2023-05-14T13:56:40.349Z,5.45
2023-05-14T13:59:06.820Z,5.72
2023-05-14T14:01:33.240Z,5.20
2023-05-14T14:03:59.721Z,5.65
2023-05-14T14:06:29.407Z,5.45
2023-05-14T14:08:55.748Z,9.80
2023-05-14T14:11:22.207Z,6.18
2023-05-14T14:13:48.748Z,5.65
2023-05-14T14:16:16.163Z,5.07
2023-05-14T14:18:43.157Z,4.90
2023-05-14T14:21:10.254Z,5.45
2023-05-14T14:23:36.594Z,5.30
2023-05-14T14:26:03.110Z,5.13
2023-05-14T14:28:29.822Z,5.07
2023-05-14T14:30:56.156Z,5.40
2023-05-14T14:33:22.480Z,5.38
2023-05-14T14:35:48.839Z,5.05
2023-05-14T14:38:15.316Z,5.45
2023-05-14T14:40:41.778Z,5.75
2023-05-14T14:43:08.153Z,5.78
2023-05-14T14:45:34.646Z,4.90
2023-05-14T14:48:34.167Z,5.05
2023-05-14T14:51:03.435Z,6.47
2023-05-14T14:53:31.017Z,5.15
2023-05-14T14:55:58.123Z,5.80
2023-05-14T14:58:24.719Z,4.93
2023-05-14T15:00:53.356Z,5.05
2023-05-14T15:03:20.639Z,5.07
2023-05-14T15:05:47.416Z,4.80
2023-05-14T15:08:14.573Z,4.45
2023-05-14T15:10:41.576Z,5.50
2023-05-14T15:13:08.574Z,5.00
2023-05-14T15:15:35.754Z,4.97
2023-05-14T15:18:03.140Z,4.68
2023-05-14T15:20:29.597Z,5.53
2023-05-14T15:22:56.121Z,5.00
2023-05-14T15:25:23.982Z,4.90
2023-05-14T15:27:52.139Z,4.57
2023-05-14T15:30:18.621Z,5.00
2023-05-14T15:32:45.775Z,5.10
2023-05-14T15:35:12.572Z,4.60
2023-05-14T15:37:42.308Z,4.80
2023-05-14T15:40:10.150Z,4.53
2023-05-14T15:42:38.375Z,6.30
2023-05-14T15:45:05.629Z,5.45
2023-05-14T15:47:32.315Z,5.18
2023-05-14T15:49:59.082Z,5.28
2023-05-14T15:52:25.863Z,5.03
2023-05-14T15:54:52.328Z,5.45
2023-05-14T15:57:19.974Z,4.70
2023-05-14T15:59:47.164Z,4.90
2023-05-14T16:02:14.597Z,5.32
2023-05-14T16:04:41.140Z,4.88
2023-05-14T16:07:12.177Z,4.80
2023-05-14T16:09:38.792Z,4.80
2023-05-14T16:12:06.435Z,4.97
2023-05-14T16:14:35.877Z,4.40
2023-05-14T16:17:02.315Z,5.35
2023-05-14T16:19:28.816Z,4.95
2023-05-14T16:21:55.276Z,5.28
2023-05-14T16:24:21.722Z,4.65
2023-05-14T16:26:48.200Z,4.43
2023-05-14T16:29:14.654Z,4.38
2023-05-14T16:31:41.155Z,4.63
2023-05-14T16:34:07.658Z,5.25
2023-05-14T16:36:34.294Z,5.18
2023-05-14T16:41:30.203Z,4.85
2023-05-14T16:43:56.563Z,4.88
2023-05-14T16:46:23.170Z,5.03
2023-05-14T16:48:50.561Z,4.63
2023-05-14T16:51:16.971Z,9.23
2023-05-14T16:53:43.382Z,7.00
2023-05-14T16:56:09.996Z,10.10
2023-05-14T16:58:36.406Z,11.63
2023-05-14T17:01:02.868Z,8.63
2023-05-14T17:03:29.266Z,5.65
2023-05-14T17:05:55.646Z,4.78
2023-05-14T17:08:22.123Z,5.00
2023-05-14T17:10:48.492Z,9.77
2023-05-14T17:13:14.835Z,11.52
2023-05-14T17:15:42.362Z,8.30
2023-05-14T17:18:08.958Z,6.72
2023-05-14T17:20:35.419Z,7.28
2023-05-14T17:23:01.866Z,8.40
2023-05-14T17:25:28.205Z,10.20
2023-05-14T17:27:54.556Z,6.68
2023-05-14T17:30:21.264Z,10.30
2023-05-14T17:32:50.344Z,10.25
2023-05-14T17:35:17.460Z,10.40
2023-05-14T17:37:44.092Z,7.97
2023-05-14T17:40:14.809Z,6.95
2023-05-14T17:42:41.241Z,7.07
2023-05-14T17:45:08.642Z,6.20
2023-05-14T17:47:35.044Z,6.82
2023-05-14T17:50:01.485Z,6.93
2023-05-14T17:52:27.933Z,6.72
2023-05-14T17:54:54.457Z,6.53
2023-05-14T17:57:21.204Z,6.38
2023-05-14T17:59:47.744Z,7.15
2023-05-14T18:02:14.126Z,6.32
2023-05-14T18:04:40.560Z,7.20
2023-05-14T18:07:07.124Z,7.78
2023-05-14T18:09:33.652Z,8.55
2023-05-14T18:12:00.180Z,7.68
2023-05-14T18:14:26.539Z,6.60
2023-05-14T18:16:54.676Z,6.90
2023-05-14T18:19:21.488Z,7.22
2023-05-14T18:21:48.125Z,6.40
2023-05-14T18:24:14.609Z,7.88
2023-05-14T18:26:41.040Z,7.05
2023-05-14T18:29:07.473Z,7.20
2023-05-14T18:31:34.019Z,8.07
2023-05-14T18:34:07.859Z,8.40
2023-05-14T18:36:34.437Z,6.75
2023-05-14T18:39:00.820Z,6.20
2023-05-14T18:41:27.346Z,8.70
2023-05-14T18:43:53.754Z,12.18
2023-05-14T18:46:20.345Z,9.32
2023-05-14T18:48:46.816Z,8.00
2023-05-14T18:51:13.324Z,11.23
2023-05-14T18:53:39.861Z,12.75
2023-05-14T18:56:06.371Z,11.98
2023-05-14T18:58:32.810Z,11.73
2023-05-14T19:01:02.337Z,9.27
2023-05-14T19:03:35.124Z,9.40
2023-05-14T19:06:01.638Z,8.63
2023-05-14T19:08:28.040Z,9.43
2023-05-14T19:10:56.824Z,8.77
2023-05-14T19:13:23.678Z,9.35
2023-05-14T19:15:50.291Z,9.65
2023-05-14T19:18:17.632Z,8.80
2023-05-14T19:20:46.165Z,10.60
2023-05-14T19:23:12.673Z,10.25
2023-05-14T19:25:39.170Z,12.90
2023-05-14T19:28:05.875Z,9.93
2023-05-14T19:30:32.299Z,11.50
2023-05-14T19:32:58.780Z,12.57
2023-05-14T19:35:25.481Z,13.38
2023-05-14T19:37:52.992Z,11.85
2023-05-14T19:40:19.423Z,11.93
2023-05-14T19:42:48.229Z,17.25
2023-05-14T19:45:21.069Z,12.80
2023-05-14T19:47:48.755Z,13.65
2023-05-14T19:50:16.800Z,12.95
2023-05-14T19:52:45.120Z,17.92
2023-05-14T19:55:11.715Z,14.90
2023-05-14T19:57:39.127Z,14.95
2023-05-14T20:00:09.493Z,16.63
2023-05-14T20:02:36.049Z,15.10
2023-05-14T20:05:02.590Z,15.32
2023-05-14T20:07:30.683Z,18.80
2023-05-14T20:09:57.168Z,15.50
2023-05-14T20:12:24.730Z,18.42
2023-05-14T20:14:51.634Z,15.63
2023-05-14T20:17:18.139Z,16.38
2023-05-14T20:19:44.655Z,19.60
2023-05-14T20:22:15.092Z,14.75
2023-05-14T20:24:41.459Z,13.90
2023-05-14T20:27:08.041Z,15.90
2023-05-14T20:29:34.568Z,16.90
2023-05-14T20:32:01.040Z,16.35
2023-05-14T20:34:27.418Z,17.02
2023-05-14T20:36:53.965Z,15.88
2023-05-14T20:39:20.605Z,16.23
2023-05-14T20:41:47.016Z,18.27
2023-05-14T20:44:13.449Z,20.05
2023-05-14T20:46:40.016Z,18.20
2023-05-14T20:49:06.497Z,18.73
2023-05-14T20:51:33.001Z,19.00
2023-05-14T20:53:59.383Z,20.60
2023-05-14T20:56:26.475Z,17.83
2023-05-14T20:58:52.850Z,23.45
2023-05-14T21:01:19.529Z,15.32
2023-05-14T21:03:47.288Z,16.20
2023-05-14T21:06:13.960Z,28.85
2023-05-14T21:08:40.485Z,19.52
2023-05-14T21:11:09.467Z,26.40
2023-05-14T21:13:38.924Z,59.08
2023-05-14T21:16:07.967Z,42.03
2023-05-14T21:18:34.364Z,39.75
2023-05-14T21:21:03.796Z,168.07
2023-05-14T21:23:30.274Z,48.42
2023-05-14T21:25:57.825Z,33.65
2023-05-14T21:28:26.490Z,63.67
2023-05-14T21:30:53.018Z,52.03
2023-05-14T21:33:19.509Z,150.48
2023-05-14T21:35:48.249Z,112.32
2023-05-14T21:38:15.203Z,256.00
2023-05-14T21:40:41.581Z,396.02
2023-05-14T21:43:08.000Z,504.33
2023-05-14T21:45:34.877Z,497.83
2023-05-14T21:48:01.510Z,489.35
2023-05-14T21:50:36.829Z,494.25
2023-05-14T21:53:03.328Z,447.23
2023-05-14T21:55:29.706Z,535.03
2023-05-14T21:57:56.181Z,607.15
2023-05-14T22:00:26.502Z,614.10
2023-05-14T22:02:53.248Z,605.55
2023-05-14T22:05:20.045Z,666.20
2023-05-14T22:07:46.664Z,645.47
2023-05-14T22:10:14.188Z,650.08
2023-05-14T22:12:44.082Z,627.25
2023-05-14T22:15:11.660Z,613.85
2023-05-14T22:17:38.804Z,649.38
2023-05-14T22:20:07.484Z,654.15
2023-05-14T22:22:34.176Z,600.00
2023-05-14T22:25:00.723Z,526.45
2023-05-14T22:27:27.181Z,580.47
2023-05-14T22:29:55.090Z,530.67
2023-05-14T22:32:21.565Z,403.30
2023-05-14T22:34:47.957Z,412.80
2023-05-14T22:37:14.366Z,384.95
2023-05-14T22:39:40.880Z,414.63
2023-05-14T22:42:07.507Z,406.38
2023-05-14T22:44:35.296Z,429.23
2023-05-14T22:47:01.820Z,422.30
2023-05-14T22:49:28.251Z,399.85
2023-05-14T22:51:54.582Z,413.83
2023-05-14T22:54:21.217Z,369.15
2023-05-14T22:56:47.683Z,340.98
2023-05-14T22:59:14.037Z,381.40
2023-05-14T23:01:40.571Z,382.05
2023-05-14T23:04:09.305Z,382.92
2023-05-14T23:06:35.885Z,392.38
2023-05-14T23:09:02.320Z,411.13
2023-05-14T23:11:28.937Z,409.08
2023-05-14T23:13:55.730Z,405.80
2023-05-14T23:16:24.407Z,390.00
2023-05-14T23:18:50.995Z,404.70
2023-05-14T23:21:20.026Z,410.90
2023-05-14T23:23:46.650Z,393.25
2023-05-14T23:26:13.207Z,413.45
2023-05-14T23:28:42.182Z,396.98
2023-05-14T23:31:08.582Z,392.83
2023-05-14T23:33:35.039Z,399.85
2023-05-14T23:36:01.538Z,396.67
2023-05-14T23:38:27.942Z,419.90
2023-05-14T23:40:56.733Z,405.23
2023-05-14T23:43:23.595Z,368.88
2023-05-14T23:45:50.003Z,415.98
2023-05-14T23:48:16.463Z,405.35
2023-05-14T23:50:43.816Z,408.42
2023-05-14T23:53:10.315Z,425.08
2023-05-14T23:55:36.726Z,403.90
2023-05-14T23:58:03.266Z,388.25
